Time;durP1;ratioP1;P1;durP2;ratioP2;P2;SDS_P1;SDS_P2;PMS_P1;PMS_P2;Temp;Humidity;BMP_temperature;BMP_pressure;BME280_temperature;BME280_humidity;BME280_pressure;Samples;Min_cycle;Max_cycle;Signal;HPM_P1;HPM_P2
2022/02/21 00:02:15;;;;;;;1.45;1.00;;;9.20;99.90;;;;;;5053845;28;20551;-78
2022/02/21 00:04:42;;;;;;;3.78;1.00;;;9.10;99.90;;;;;;5051747;28;20055;-75
2022/02/21 00:07:08;;;;;;;2.15;0.55;;;9.10;99.90;;;;;;5033595;28;20471;-75
2022/02/21 00:09:35;;;;;;;0.65;0.45;;;8.20;99.90;;;;;;5036126;28;20068;-75
2022/02/21 00:12:04;;;;;;;1.08;0.50;;;7.30;99.90;;;;;;5039650;28;20068;-74
2022/02/21 00:14:30;;;;;;;6.07;0.70;;;6.90;99.90;;;;;;5041307;28;20748;-76
2022/02/21 00:16:57;;;;;;;1.60;0.60;;;6.80;99.90;;;;;;5040091;28;20037;-75
2022/02/21 00:19:24;;;;;;;0.80;0.80;;;6.60;99.90;;;;;;5041079;28;20045;-75
2022/02/21 00:21:51;;;;;;;1.75;0.55;;;6.50;99.90;;;;;;5041462;28;20482;-75
2022/02/21 00:24:18;;;;;;;1.42;0.52;;;6.50;99.90;;;;;;5040750;28;20049;-76
2022/02/21 00:26:44;;;;;;;1.50;0.30;;;6.40;99.90;;;;;;5040168;28;20061;-75
2022/02/21 00:29:11;;;;;;;0.90;0.60;;;6.30;99.90;;;;;;5041389;28;20043;-76
2022/02/21 00:31:38;;;;;;;0.93;0.32;;;6.20;99.90;;;;;;5039235;28;20033;-76
2022/02/21 00:34:05;;;;;;;0.30;0.30;;;6.10;99.90;;;;;;5037360;28;20037;-76
2022/02/21 00:36:32;;;;;;;1.67;0.50;;;5.90;99.90;;;;;;5056239;28;20184;-76
2022/02/21 00:38:58;;;;;;;1.17;0.32;;;5.80;99.90;;;;;;5031977;28;20095;-75
2022/02/21 00:41:25;;;;;;;1.30;0.63;;;5.80;99.90;;;;;;5039221;28;20527;-76
2022/02/21 00:43:52;;;;;;;0.80;0.77;;;5.70;99.90;;;;;;5039319;28;20074;-76
2022/02/21 00:46:19;;;;;;;0.75;0.60;;;5.50;99.90;;;;;;5039429;28;20040;-75
2022/02/21 00:48:46;;;;;;;1.60;0.50;;;5.40;99.90;;;;;;5040631;28;20049;-75
2022/02/21 00:51:13;;;;;;;0.60;0.60;;;5.40;99.90;;;;;;5029029;28;20045;-75
2022/02/21 00:53:39;;;;;;;1.15;0.75;;;5.30;99.90;;;;;;5051052;28;20067;-75
2022/02/21 00:56:07;;;;;;;1.75;1.10;;;5.30;99.90;;;;;;5033628;28;20164;-75
2022/02/21 00:58:34;;;;;;;3.03;2.33;;;5.30;99.90;;;;;;5021302;28;20107;-76
2022/02/21 01:01:01;;;;;;;3.92;2.47;;;5.30;99.90;;;;;;5040410;28;20040;-75
2022/02/21 01:03:28;;;;;;;4.55;2.67;;;5.20;99.90;;;;;;5040143;28;20083;-77
2022/02/21 01:05:55;;;;;;;3.55;2.70;;;5.20;99.90;;;;;;5039845;28;20049;-76
2022/02/21 01:08:21;;;;;;;3.97;2.63;;;5.20;99.90;;;;;;5025257;28;20038;-75
2022/02/21 01:10:48;;;;;;;5.63;3.25;;;5.20;99.90;;;;;;5042909;28;20045;-76
2022/02/21 01:13:15;;;;;;;3.63;2.90;;;5.10;99.90;;;;;;5043729;28;20073;-75
2022/02/21 01:15:42;;;;;;;4.88;2.60;;;5.10;99.90;;;;;;5044511;28;20527;-76
2022/02/21 01:18:09;;;;;;;2.55;2.13;;;5.00;99.90;;;;;;5044263;28;20037;-76
2022/02/21 01:20:35;;;;;;;8.52;3.78;;;5.00;99.90;;;;;;5044425;28;20044;-76
2022/02/21 01:23:02;;;;;;;6.45;3.60;;;5.00;99.90;;;;;;5060038;28;20102;-76
2022/02/21 01:25:29;;;;;;;7.60;4.65;;;5.00;99.90;;;;;;5053569;28;20076;-76
2022/02/21 01:27:56;;;;;;;8.02;3.95;;;5.00;99.90;;;;;;5045490;28;20080;-77
2022/02/21 01:30:23;;;;;;;6.60;4.60;;;5.00;99.90;;;;;;5043087;28;20757;-76
2022/02/21 01:32:49;;;;;;;5.90;4.20;;;5.10;99.90;;;;;;5045671;28;20687;-77
2022/02/21 01:35:16;;;;;;;10.45;3.50;;;5.10;99.90;;;;;;5059615;28;20111;-77
2022/02/21 01:37:43;;;;;;;6.13;3.65;;;5.10;99.90;;;;;;5044522;28;20080;-77
2022/02/21 01:40:10;;;;;;;8.55;3.20;;;5.10;99.90;;;;;;5048337;28;20106;-77
2022/02/21 01:42:37;;;;;;;6.07;3.55;;;5.20;99.90;;;;;;5047286;28;20087;-77
2022/02/21 01:45:06;;;;;;;5.30;3.22;;;5.20;99.90;;;;;;5031828;28;20060;-77
2022/02/21 01:47:33;;;;;;;7.68;3.22;;;5.20;99.90;;;;;;5049698;28;20494;-78
2022/02/21 01:49:59;;;;;;;6.03;3.30;;;5.20;99.90;;;;;;5048839;28;20048;-78
2022/02/21 01:52:26;;;;;;;6.45;2.67;;;5.20;99.90;;;;;;5048661;28;20048;-77
2022/02/21 01:54:53;;;;;;;4.82;2.65;;;5.20;99.90;;;;;;5053217;28;20039;-78
2022/02/21 01:57:21;;;;;;;8.82;2.50;;;5.20;99.90;;;;;;5050141;28;20045;-78
2022/02/21 01:59:48;;;;;;;6.43;3.38;;;5.20;99.90;;;;;;5049744;28;20507;-78
2022/02/21 02:02:15;;;;;;;9.27;3.03;;;5.20;99.90;;;;;;5046864;28;20422;-78
2022/02/21 02:04:42;;;;;;;8.82;2.58;;;5.10;99.90;;;;;;5046062;28;20419;-78
2022/02/21 02:07:11;;;;;;;9.50;2.47;;;5.10;99.90;;;;;;5019209;28;20115;-78
2022/02/21 02:09:38;;;;;;;5.53;2.45;;;5.10;99.90;;;;;;5040866;28;20045;-78
2022/02/21 02:12:07;;;;;;;7.47;2.58;;;5.00;99.90;;;;;;5041883;28;20319;-79
2022/02/21 02:14:37;;;;;;;6.13;2.35;;;5.00;99.90;;;;;;5047690;28;20044;-79
2022/02/21 02:17:06;;;;;;;4.72;1.90;;;5.00;99.90;;;;;;5044742;28;20041;-79
2022/02/21 02:19:34;;;;;;;9.88;2.95;;;5.00;99.90;;;;;;5027901;28;20053;-79
2022/02/21 02:22:14;;;;;;;5.78;1.90;;;5.00;99.90;;;;;;5044752;28;20132;-80
2022/02/21 02:24:42;;;;;;;5.78;2.60;;;5.00;99.90;;;;;;5045432;28;20526;-79
2022/02/21 02:27:10;;;;;;;6.30;2.60;;;4.90;99.90;;;;;;5027920;28;20033;-79
2022/02/21 02:29:38;;;;;;;2.30;2.10;;;4.90;99.90;;;;;;5045006;28;20439;-79
2022/02/21 02:32:07;;;;;;;5.13;2.80;;;4.80;99.90;;;;;;5045196;28;20053;-79
2022/02/21 02:34:35;;;;;;;9.23;2.53;;;4.80;99.90;;;;;;5045217;28;20055;-79
2022/02/21 02:37:02;;;;;;;3.00;2.17;;;4.70;99.90;;;;;;5027090;28;20146;-79
2022/02/21 02:39:28;;;;;;;6.07;2.85;;;4.50;99.90;;;;;;5043374;28;20075;-79
2022/02/21 02:41:55;;;;;;;7.10;1.90;;;4.50;99.90;;;;;;5044909;28;20056;-79
2022/02/21 02:44:22;;;;;;;8.40;2.17;;;4.30;99.90;;;;;;5042389;28;20251;-79
2022/02/21 02:46:49;;;;;;;6.03;2.38;;;4.20;99.90;;;;;;5043247;28;20056;-80
2022/02/21 02:49:16;;;;;;;11.07;2.35;;;4.10;99.90;;;;;;5045075;28;20126;-79
2022/02/21 02:51:43;;;;;;;8.20;2.55;;;4.00;99.90;;;;;;5046993;28;20037;-80
2022/02/21 02:54:11;;;;;;;6.45;1.83;;;4.00;99.90;;;;;;5030496;28;20582;-80
2022/02/21 02:56:39;;;;;;;6.88;2.53;;;3.90;99.90;;;;;;5052163;28;20041;-79
2022/02/21 02:59:07;;;;;;;7.22;1.90;;;3.90;99.90;;;;;;5030694;28;20049;-78
2022/02/21 03:01:35;;;;;;;21.77;2.78;;;3.90;99.90;;;;;;5034076;28;20057;-80
2022/02/21 03:04:02;;;;;;;9.65;1.75;;;3.80;99.90;;;;;;5048796;28;20045;-79
2022/02/21 03:06:29;;;;;;;6.57;3.15;;;3.80;99.90;;;;;;5050265;28;20040;-79
2022/02/21 03:08:57;;;;;;;5.13;1.88;;;3.80;99.90;;;;;;5048437;28;20033;-80
2022/02/21 03:11:24;;;;;;;11.10;2.65;;;3.70;99.90;;;;;;5047924;28;20045;-80
2022/02/21 03:13:51;;;;;;;9.60;2.40;;;3.60;99.90;;;;;;5049898;28;20048;-79
2022/02/21 03:16:18;;;;;;;7.78;2.38;;;3.60;99.90;;;;;;5046173;28;20045;-80
2022/02/21 03:18:46;;;;;;;7.60;2.40;;;3.60;99.90;;;;;;5046854;28;20076;-79
2022/02/21 03:21:12;;;;;;;10.35;2.42;;;3.60;99.90;;;;;;5046914;28;20118;-79
2022/02/21 03:23:39;;;;;;;9.50;4.97;;;3.60;99.90;;;;;;5034981;28;20036;-79
2022/02/21 03:26:06;;;;;;;9.75;3.22;;;3.60;99.90;;;;;;5048902;28;20053;-79
2022/02/21 03:28:33;;;;;;;14.63;2.88;;;3.60;99.90;;;;;;5030248;28;20041;-79
2022/02/21 03:31:00;;;;;;;12.18;2.45;;;3.60;99.90;;;;;;5049192;28;20071;-80
2022/02/21 03:33:26;;;;;;;12.45;2.45;;;3.60;99.90;;;;;;5048206;28;20057;-79
2022/02/21 03:35:53;;;;;;;7.18;1.52;;;3.60;99.90;;;;;;5044930;28;20076;-77
2022/02/21 03:38:20;;;;;;;12.57;2.67;;;3.20;99.90;;;;;;5040568;28;20476;-75
2022/02/21 03:40:48;;;;;;;8.88;2.53;;;2.80;99.90;;;;;;5047476;28;20466;-76
2022/02/21 03:43:15;;;;;;;5.38;1.33;;;2.70;99.90;;;;;;5042776;28;20049;-76
2022/02/21 03:45:42;;;;;;;5.57;1.98;;;2.70;99.90;;;;;;5039757;28;20060;-76
2022/02/21 03:48:09;;;;;;;19.00;2.85;;;2.60;99.90;;;;;;5042535;28;20156;-76
2022/02/21 03:50:35;;;;;;;7.03;2.20;;;2.60;99.90;;;;;;5040459;28;20053;-76
2022/02/21 03:53:02;;;;;;;11.43;2.08;;;2.60;99.90;;;;;;5042186;28;20060;-76
2022/02/21 03:55:29;;;;;;;4.30;1.35;;;2.60;99.90;;;;;;5051428;28;20514;-77
2022/02/21 03:57:56;;;;;;;6.07;1.65;;;2.60;99.90;;;;;;5043643;28;20612;-76
2022/02/21 04:00:23;;;;;;;11.07;2.50;;;2.60;99.90;;;;;;5024407;28;20124;-77
2022/02/21 04:02:50;;;;;;;4.82;2.25;;;2.60;99.90;;;;;;5024510;28;20422;-77
2022/02/21 04:05:17;;;;;;;14.70;2.15;;;2.60;99.90;;;;;;5040579;28;20087;-76
2022/02/21 04:07:44;;;;;;;12.40;2.10;;;2.60;99.90;;;;;;5040934;28;20581;-78
2022/02/21 04:10:15;;;;;;;7.00;1.90;;;2.60;99.90;;;;;;5041236;28;20048;-77
2022/02/21 04:12:42;;;;;;;11.98;2.42;;;2.60;99.90;;;;;;5039727;28;20137;-77
2022/02/21 04:15:09;;;;;;;7.22;2.03;;;2.60;99.90;;;;;;5032627;28;20533;-77
2022/02/21 04:17:46;;;;;;;9.93;3.05;;;2.60;99.90;;;;;;5048815;28;20088;-78
2022/02/21 04:20:16;;;;;;;14.27;2.63;;;2.60;99.90;;;;;;5048576;28;20114;-78
2022/02/21 04:22:43;;;;;;;14.07;3.53;;;2.60;99.90;;;;;;5049351;28;20156;-78
2022/02/21 04:25:11;;;;;;;18.02;3.17;;;2.60;99.90;;;;;;5048970;28;20554;-78
2022/02/21 04:27:43;;;;;;;14.40;2.90;;;2.70;99.90;;;;;;5050538;28;20052;-78
2022/02/21 04:30:11;;;;;;;20.45;4.45;;;2.70;99.90;;;;;;5048548;28;20049;-78
2022/02/21 04:32:39;;;;;;;11.73;2.92;;;2.70;99.90;;;;;;5049344;28;20069;-78
2022/02/21 04:35:07;;;;;;;9.77;2.05;;;2.80;99.90;;;;;;5040462;28;20085;-77
2022/02/21 04:37:35;;;;;;;18.52;2.88;;;2.70;99.90;;;;;;5029364;28;20163;-77
2022/02/21 04:40:04;;;;;;;11.82;3.03;;;2.70;99.90;;;;;;5028842;28;20187;-78
2022/02/21 04:42:31;;;;;;;15.15;3.08;;;2.70;99.90;;;;;;5048510;28;20240;-78
2022/02/21 04:44:58;;;;;;;16.15;3.58;;;2.80;99.90;;;;;;5048885;28;20209;-77
2022/02/21 04:47:25;;;;;;;15.65;2.38;;;2.80;99.90;;;;;;5051678;28;20069;-78
2022/02/21 04:49:53;;;;;;;12.32;2.85;;;2.80;99.90;;;;;;5052040;28;20045;-78
2022/02/21 04:52:20;;;;;;;12.77;3.08;;;2.80;99.90;;;;;;5035543;28;20048;-79
2022/02/21 04:54:47;;;;;;;21.20;3.58;;;2.80;99.90;;;;;;5056465;28;20055;-78
2022/02/21 04:57:14;;;;;;;18.48;3.78;;;2.90;99.90;;;;;;5057189;28;20103;-78
2022/02/21 04:59:41;;;;;;;11.98;3.10;;;2.90;99.90;;;;;;5054852;28;20052;-78
2022/02/21 05:02:08;;;;;;;9.13;3.22;;;2.90;99.90;;;;;;5052322;28;20579;-78
2022/02/21 05:04:34;;;;;;;15.50;3.20;;;2.80;99.90;;;;;;5051856;28;20041;-79
2022/02/21 05:07:13;;;;;;;17.25;3.63;;;2.80;99.90;;;;;;5053017;28;20040;-78
2022/02/21 05:09:40;;;;;;;16.52;3.20;;;2.80;99.90;;;;;;5052014;28;20045;-79
2022/02/21 05:12:08;;;;;;;11.95;2.53;;;2.80;99.90;;;;;;5053639;28;20045;-78
2022/02/21 05:14:34;;;;;;;11.07;2.63;;;2.70;99.90;;;;;;5053375;28;20487;-78
2022/02/21 05:17:01;;;;;;;7.65;2.72;;;2.70;99.90;;;;;;5052196;28;20569;-79
2022/02/21 05:19:28;;;;;;;21.20;4.93;;;2.70;99.90;;;;;;5036873;28;20077;-78
2022/02/21 05:21:55;;;;;;;17.55;4.28;;;2.70;99.90;;;;;;5051495;28;20037;-79
2022/02/21 05:24:22;;;;;;;11.43;3.83;;;2.80;99.90;;;;;;5054320;28;20048;-80
2022/02/21 05:26:49;;;;;;;8.73;3.05;;;2.80;99.90;;;;;;5052762;28;20076;-79
2022/02/21 05:29:16;;;;;;;15.35;3.17;;;2.80;99.90;;;;;;5052560;28;20045;-80
2022/02/21 05:31:43;;;;;;;6.45;3.03;;;2.90;99.90;;;;;;5052607;28;20041;-80
2022/02/21 05:34:10;;;;;;;21.80;5.05;;;2.80;99.90;;;;;;5053938;28;20072;-79
2022/02/21 05:36:36;;;;;;;18.48;4.47;;;2.90;99.90;;;;;;5052568;28;20045;-80
2022/02/21 05:39:03;;;;;;;30.02;4.90;;;2.90;99.90;;;;;;5052809;28;20049;-80
2022/02/21 05:41:30;;;;;;;16.50;3.92;;;2.90;99.90;;;;;;5047005;28;20053;-79
2022/02/21 05:44:00;;;;;;;13.80;3.22;;;2.90;99.90;;;;;;5053025;28;20051;-79
2022/02/21 05:46:27;;;;;;;12.02;4.18;;;2.90;99.90;;;;;;5053679;28;20464;-78
2022/02/21 05:48:54;;;;;;;15.20;5.05;;;2.90;99.90;;;;;;5053385;28;20343;-79
2022/02/21 05:51:21;;;;;;;8.93;3.28;;;2.90;99.90;;;;;;5054209;28;20071;-79
2022/02/21 05:53:49;;;;;;;6.82;2.63;;;2.60;99.90;;;;;;5064423;28;20068;-79
2022/02/21 05:56:16;;;;;;;9.48;2.42;;;2.30;99.90;;;;;;5072287;28;20465;-79
2022/02/21 05:58:43;;;;;;;5.88;2.08;;;2.20;99.90;;;;;;5078804;28;20052;-78
2022/02/21 06:01:10;;;;;;;9.73;2.55;;;2.10;99.90;;;;;;5071344;28;20052;-79
2022/02/21 06:03:42;;;;;;;9.07;2.55;;;2.00;99.90;;;;;;5052030;28;20139;-79
2022/02/21 06:06:09;;;;;;;5.63;1.67;;;1.90;99.90;;;;;;5055367;28;20052;-78
2022/02/21 06:08:35;;;;;;;12.15;2.33;;;1.90;99.90;;;;;;5042670;28;20060;-78
2022/02/21 06:11:03;;;;;;;7.28;2.08;;;1.90;99.90;;;;;;5057698;28;20226;-79
2022/02/21 06:13:29;;;;;;;11.80;3.03;;;1.90;99.90;;;;;;5037784;28;20064;-78
2022/02/21 06:15:56;;;;;;;12.30;2.25;;;1.90;99.90;;;;;;5053114;28;20079;-78
2022/02/21 06:18:23;;;;;;;10.02;2.53;;;2.00;99.90;;;;;;5033965;28;20041;-78
2022/02/21 06:20:50;;;;;;;13.23;2.95;;;2.00;99.90;;;;;;5047418;28;20056;-77
2022/02/21 06:23:17;;;;;;;10.25;3.47;;;2.00;99.90;;;;;;5047254;28;20135;-78
2022/02/21 06:25:45;;;;;;;7.20;3.65;;;1.90;99.90;;;;;;5029833;28;20049;-78
2022/02/21 06:28:12;;;;;;;21.35;3.33;;;2.00;99.90;;;;;;5047657;28;20139;-78
2022/02/21 06:30:39;;;;;;;13.20;2.72;;;1.90;99.90;;;;;;5047369;28;20074;-79
2022/02/21 06:33:06;;;;;;;14.05;2.78;;;2.00;99.90;;;;;;5045794;28;20041;-78
2022/02/21 06:35:33;;;;;;;9.45;2.38;;;1.90;99.90;;;;;;5029810;28;20049;-78
2022/02/21 06:38:04;;;;;;;11.55;2.55;;;1.90;99.90;;;;;;5045942;28;20792;-79
2022/02/21 06:40:31;;;;;;;10.25;2.85;;;1.90;99.90;;;;;;5045102;28;20103;-78
2022/02/21 06:42:58;;;;;;;9.93;3.38;;;1.90;99.90;;;;;;5045120;28;20261;-78
2022/02/21 06:45:27;;;;;;;12.43;3.85;;;1.80;99.90;;;;;;5027860;28;20126;-78
2022/02/21 06:47:55;;;;;;;15.48;6.00;;;1.80;99.90;;;;;;5019456;28;20111;-78
2022/02/21 06:50:23;;;;;;;13.57;5.78;;;1.90;99.90;;;;;;5033840;28;20060;-78
2022/02/21 06:52:50;;;;;;;15.45;5.75;;;1.80;99.90;;;;;;5040983;28;20086;-79
2022/02/21 06:55:18;;;;;;;18.65;5.35;;;1.70;99.90;;;;;;5052633;28;20044;-78
2022/02/21 06:57:48;;;;;;;9.88;5.10;;;1.70;99.90;;;;;;5068394;28;20607;-79
2022/02/21 07:00:16;;;;;;;21.17;6.55;;;1.70;99.90;;;;;;5050083;28;20048;-80
2022/02/21 07:02:44;;;;;;;18.17;6.88;;;1.60;99.90;;;;;;5046773;28;20118;-78
2022/02/21 07:05:11;;;;;;;13.35;6.35;;;1.60;99.90;;;;;;5046686;28;20059;-80
2022/02/21 07:07:38;;;;;;;15.13;5.88;;;1.70;99.90;;;;;;5046681;28;20049;-79
2022/02/21 07:10:06;;;;;;;11.48;4.50;;;1.70;99.90;;;;;;5046649;28;20071;-78
2022/02/21 07:12:33;;;;;;;11.68;4.97;;;1.70;99.90;;;;;;5033399;28;20045;-80
2022/02/21 07:15:00;;;;;;;15.35;4.95;;;1.70;99.90;;;;;;5026861;28;20076;-79
2022/02/21 07:17:27;;;;;;;16.65;3.90;;;1.80;99.90;;;;;;5027127;28;20502;-80
2022/02/21 07:19:55;;;;;;;11.38;3.25;;;1.80;99.90;;;;;;5046820;28;20128;-79
2022/02/21 07:22:24;;;;;;;16.25;3.75;;;1.90;99.90;;;;;;5046606;28;20053;-79
2022/02/21 07:24:50;;;;;;;13.18;3.50;;;2.00;99.90;;;;;;5045978;28;20041;-79
2022/02/21 07:27:17;;;;;;;14.18;4.00;;;2.10;99.90;;;;;;5046625;28;20073;-79
2022/02/21 07:29:44;;;;;;;14.82;4.43;;;2.20;99.90;;;;;;5046291;28;20053;-79
2022/02/21 07:32:11;;;;;;;11.73;5.07;;;2.20;99.90;;;;;;5045724;28;20806;-80
2022/02/21 07:34:38;;;;;;;15.88;3.67;;;2.30;99.90;;;;;;5048075;28;20491;-79
2022/02/21 07:37:06;;;;;;;21.52;5.70;;;2.30;99.90;;;;;;5029775;28;20274;-79
2022/02/21 07:39:33;;;;;;;11.27;4.57;;;2.30;99.90;;;;;;5039852;28;20041;-79
2022/02/21 07:42:00;;;;;;;16.45;4.68;;;2.40;99.90;;;;;;5047738;28;20045;-79
2022/02/21 07:44:31;;;;;;;10.93;4.47;;;2.40;99.90;;;;;;5047152;28;20044;-79
2022/02/21 07:46:58;;;;;;;7.82;5.22;;;2.50;99.90;;;;;;5047534;28;20261;-79
2022/02/21 07:49:25;;;;;;;13.00;4.68;;;2.50;99.90;;;;;;5046652;28;20045;-79
2022/02/21 07:51:52;;;;;;;11.13;4.82;;;2.40;99.90;;;;;;5045736;28;20219;-79
2022/02/21 07:54:19;;;;;;;9.15;4.18;;;2.40;99.90;;;;;;5046330;28;20041;-80
2022/02/21 07:57:06;;;;;;;14.13;4.93;;;2.30;99.90;;;;;;5026933;28;20708;-79
2022/02/21 07:59:33;;;;;;;12.57;4.60;;;2.30;99.90;;;;;;5042017;28;20493;-79
2022/02/21 08:02:00;;;;;;;17.83;5.55;;;2.30;99.90;;;;;;5046102;28;20056;-79
2022/02/21 08:04:27;;;;;;;21.00;5.25;;;2.40;99.90;;;;;;5029097;28;20045;-79
2022/02/21 08:06:54;;;;;;;13.13;5.75;;;2.40;99.90;;;;;;5046385;28;20044;-79
2022/02/21 08:09:21;;;;;;;19.42;7.07;;;2.40;99.90;;;;;;5028458;28;20401;-79
2022/02/21 08:11:48;;;;;;;16.55;7.45;;;2.60;99.90;;;;;;5056490;28;20056;-79
2022/02/21 08:14:15;;;;;;;16.20;7.93;;;2.70;99.90;;;;;;5047942;28;20067;-79
2022/02/21 08:16:42;;;;;;;17.20;9.27;;;2.80;99.90;;;;;;5046321;28;20049;-79
2022/02/21 08:19:10;;;;;;;17.15;9.38;;;3.00;99.90;;;;;;5043150;28;20037;-80
2022/02/21 08:21:37;;;;;;;18.33;7.97;;;3.20;99.90;;;;;;5044949;28;20060;-79
2022/02/21 08:24:06;;;;;;;14.35;7.82;;;3.40;99.90;;;;;;5043838;28;20148;-79
2022/02/21 08:26:33;;;;;;;15.75;8.63;;;3.40;99.90;;;;;;5044677;28;20110;-79
2022/02/21 08:29:00;;;;;;;21.38;8.20;;;3.40;99.90;;;;;;5045827;28;20126;-78
2022/02/21 08:31:27;;;;;;;10.60;8.82;;;3.30;99.90;;;;;;5027977;28;20097;-78
2022/02/21 08:33:54;;;;;;;32.42;11.25;;;3.30;99.90;;;;;;5049755;28;20056;-79
2022/02/21 08:36:21;;;;;;;22.27;9.60;;;3.30;99.90;;;;;;5049596;28;20554;-78
2022/02/21 08:38:47;;;;;;;18.10;12.05;;;3.40;99.90;;;;;;5043836;28;20118;-79
2022/02/21 08:41:14;;;;;;;10.98;9.10;;;3.70;99.90;;;;;;5046841;28;20048;-78
2022/02/21 08:43:41;;;;;;;10.10;9.10;;;3.70;99.90;;;;;;5052310;28;20052;-78
2022/02/21 08:46:10;;;;;;;17.58;9.15;;;3.70;99.90;;;;;;5048841;28;20037;-79
2022/02/21 08:48:58;;;;;;;11.20;9.57;;;3.70;99.90;;;;;;5048470;28;20478;-77
2022/02/21 08:51:28;;;;;;;10.82;9.40;;;3.70;99.90;;;;;;5053396;28;20278;-77
2022/02/21 08:53:55;;;;;;;13.93;9.30;;;3.90;99.90;;;;;;5041425;28;20611;-79
2022/02/21 08:56:25;;;;;;;18.48;10.18;;;4.10;99.90;;;;;;5057679;28;20804;-77
2022/02/21 08:58:53;;;;;;;11.57;8.75;;;4.00;99.90;;;;;;5042022;28;20781;-77
2022/02/21 09:01:19;;;;;;;10.45;9.38;;;3.90;99.90;;;;;;5039541;28;20044;-74
2022/02/21 09:03:46;;;;;;;11.63;8.52;;;3.90;99.90;;;;;;5041858;28;20072;-76
2022/02/21 09:06:15;;;;;;;12.20;6.85;;;3.80;99.90;;;;;;5041436;28;20052;-77
2022/02/21 09:08:42;;;;;;;12.35;6.78;;;3.70;99.90;;;;;;5039240;28;20045;-78
2022/02/21 09:11:09;;;;;;;12.52;7.07;;;3.60;99.90;;;;;;5038779;28;20048;-78
2022/02/21 09:13:36;;;;;;;18.50;6.53;;;3.60;99.90;;;;;;5039346;28;20102;-78
2022/02/21 09:16:04;;;;;;;25.17;8.45;;;3.70;99.90;;;;;;5040442;28;20037;-78
2022/02/21 09:18:31;;;;;;;8.65;6.45;;;3.60;99.90;;;;;;5039144;28;20150;-78
2022/02/21 09:20:59;;;;;;;10.23;7.53;;;3.60;99.90;;;;;;5038680;28;20060;-78
2022/02/21 09:23:25;;;;;;;14.00;8.38;;;3.50;99.90;;;;;;5041121;28;20041;-78
2022/02/21 09:25:52;;;;;;;10.00;8.25;;;3.50;99.90;;;;;;5040790;28;20118;-78
2022/02/21 09:28:22;;;;;;;13.60;7.60;;;3.50;99.90;;;;;;5041138;28;20049;-77
2022/02/21 09:30:49;;;;;;;12.98;8.25;;;3.50;99.90;;;;;;5040176;28;20191;-78
2022/02/21 09:33:15;;;;;;;12.30;7.15;;;3.50;99.90;;;;;;5042906;28;20122;-78
2022/02/21 09:35:42;;;;;;;15.43;9.48;;;3.50;99.90;;;;;;5043821;28;20056;-78
2022/02/21 09:38:09;;;;;;;10.25;8.05;;;3.50;99.90;;;;;;5043752;28;20064;-77
2022/02/21 09:40:36;;;;;;;19.35;8.98;;;3.50;99.90;;;;;;5042787;28;20053;-78
2022/02/21 09:43:03;;;;;;;10.20;7.43;;;3.50;99.90;;;;;;5043011;28;20044;-77
2022/02/21 09:45:30;;;;;;;13.38;7.97;;;3.50;99.90;;;;;;5025722;28;20079;-78
2022/02/21 09:47:57;;;;;;;15.27;9.35;;;3.50;99.90;;;;;;5041885;28;20277;-78
2022/02/21 09:50:44;;;;;;;13.05;8.70;;;3.50;99.90;;;;;;5042467;28;20136;-78
2022/02/21 09:53:11;;;;;;;16.33;8.55;;;3.60;99.90;;;;;;5042546;28;20161;-77
2022/02/21 09:55:41;;;;;;;13.25;9.00;;;3.60;99.90;;;;;;5041190;28;20087;-78
2022/02/21 09:58:08;;;;;;;18.70;9.35;;;3.60;99.90;;;;;;5044141;28;20041;-77
2022/02/21 10:00:35;;;;;;;15.35;9.77;;;3.60;99.90;;;;;;5043077;28;20041;-78
2022/02/21 10:03:03;;;;;;;16.38;9.38;;;3.60;99.90;;;;;;5026281;28;20364;-78
2022/02/21 10:05:30;;;;;;;11.15;10.20;;;3.70;99.90;;;;;;5042562;28;20313;-78
2022/02/21 10:08:01;;;;;;;16.35;11.88;;;3.80;99.90;;;;;;5026042;28;20107;-78
2022/02/21 10:10:30;;;;;;;14.57;10.00;;;3.90;99.90;;;;;;5041720;28;20086;-78
2022/02/21 10:12:58;;;;;;;15.40;11.18;;;4.10;99.90;;;;;;5042296;28;20128;-77
2022/02/21 10:15:28;;;;;;;14.93;11.82;;;4.30;99.90;;;;;;5042437;28;20091;-78
2022/02/21 10:18:14;;;;;;;12.88;11.70;;;4.30;99.90;;;;;;5044318;28;20124;-77
2022/02/21 10:20:52;;;;;;;17.20;11.32;;;4.10;99.90;;;;;;5043463;28;20048;-78
2022/02/21 10:23:19;;;;;;;15.98;12.07;;;4.10;99.90;;;;;;5043579;28;20111;-78
2022/02/21 10:26:01;;;;;;;17.83;11.98;;;4.10;99.90;;;;;;5027898;28;20059;-80
2022/02/21 10:28:35;;;;;;;13.13;11.90;;;4.10;99.90;;;;;;5041409;28;20049;-78
2022/02/21 10:31:16;;;;;;;21.88;13.15;;;4.10;99.90;;;;;;5041840;28;20049;-78
2022/02/21 10:33:57;;;;;;;13.05;11.80;;;4.20;99.90;;;;;;5059195;28;20060;-78
2022/02/21 10:36:33;;;;;;;11.93;10.95;;;4.20;99.90;;;;;;5042669;28;20132;-78
2022/02/21 10:39:04;;;;;;;15.50;13.43;;;4.20;99.90;;;;;;5042942;28;20366;-78
2022/02/21 10:41:50;;;;;;;14.32;12.85;;;4.20;99.90;;;;;;5044643;28;20126;-79
2022/02/21 10:44:30;;;;;;;15.60;14.25;;;4.30;99.90;;;;;;5043570;28;20483;-77
2022/02/21 10:47:08;;;;;;;17.08;13.00;;;4.30;99.90;;;;;;5039348;28;20138;-77
2022/02/21 10:49:59;;;;;;;15.55;12.68;;;4.40;99.90;;;;;;5040789;28;20140;-78
2022/02/21 10:52:31;;;;;;;13.93;12.50;;;4.40;99.90;;;;;;5035191;28;20057;-77
2022/02/21 10:54:58;;;;;;;16.67;12.88;;;4.50;99.90;;;;;;5021550;28;20045;-77
2022/02/21 10:57:27;;;;;;;17.58;13.15;;;4.50;99.90;;;;;;5038740;28;20041;-77
2022/02/21 10:59:56;;;;;;;14.38;13.07;;;4.60;99.90;;;;;;5039682;28;20036;-76
2022/02/21 11:02:24;;;;;;;12.60;11.65;;;4.50;99.90;;;;;;5021377;28;20045;-77
2022/02/21 11:04:54;;;;;;;14.30;11.35;;;4.60;99.90;;;;;;5041666;28;20056;-78
2022/02/21 11:07:22;;;;;;;13.32;11.50;;;4.50;99.90;;;;;;5043262;28;20113;-78
2022/02/21 11:09:51;;;;;;;11.10;10.02;;;4.30;99.90;;;;;;5043999;28;20693;-78
2022/02/21 11:12:22;;;;;;;13.38;10.35;;;4.20;99.90;;;;;;5039383;28;20269;-77
2022/02/21 11:14:49;;;;;;;16.23;10.10;;;4.10;99.90;;;;;;5039363;28;20077;-77
2022/02/21 11:17:17;;;;;;;13.95;7.80;;;4.00;99.90;;;;;;5038867;28;20036;-77
2022/02/21 11:19:44;;;;;;;8.90;7.90;;;3.90;99.90;;;;;;5039012;28;20491;-78
2022/02/21 11:22:11;;;;;;;12.18;7.97;;;3.80;99.90;;;;;;5040318;28;20076;-77
2022/02/21 11:24:54;;;;;;;7.82;6.32;;;3.70;99.90;;;;;;5038741;28;20899;-78
2022/02/21 11:27:35;;;;;;;12.73;6.13;;;3.60;99.90;;;;;;5037874;28;20049;-78
2022/02/21 11:30:05;;;;;;;10.63;5.88;;;3.50;99.90;;;;;;5041648;28;20052;-78
2022/02/21 11:32:32;;;;;;;16.33;5.30;;;3.20;99.90;;;;;;5047229;28;20057;-78
2022/02/21 11:35:19;;;;;;;18.55;5.15;;;3.00;99.90;;;;;;5045292;28;20073;-80
2022/02/21 11:37:46;;;;;;;19.55;5.55;;;2.90;99.90;;;;;;5058535;28;20037;-78
2022/02/21 11:40:14;;;;;;;14.85;5.13;;;2.80;99.90;;;;;;5048552;28;20096;-78
2022/02/21 11:42:48;;;;;;;15.02;4.80;;;2.60;99.90;;;;;;5049930;28;20107;-77
2022/02/21 11:45:29;;;;;;;20.27;6.15;;;2.50;99.90;;;;;;5042358;28;20601;-77
2022/02/21 11:48:10;;;;;;;13.30;5.25;;;2.30;99.90;;;;;;5032050;28;20053;-76
2022/02/21 11:50:37;;;;;;;11.98;4.95;;;2.20;99.90;;;;;;5019556;28;20056;-75
2022/02/21 11:53:25;;;;;;;11.60;4.28;;;2.10;99.90;;;;;;5025847;28;20037;-76
2022/02/21 11:55:52;;;;;;;11.55;4.95;;;2.20;99.90;;;;;;5033721;28;20056;-79
2022/02/21 11:58:19;;;;;;;11.18;4.35;;;2.20;99.90;;;;;;5044329;28;20048;-79
2022/02/21 12:00:50;;;;;;;11.68;4.65;;;2.30;99.90;;;;;;5043456;28;20045;-80
2022/02/21 12:03:23;;;;;;;12.65;4.43;;;2.30;99.90;;;;;;5044152;28;20055;-79
2022/02/21 12:06:09;;;;;;;11.93;5.03;;;2.40;99.90;;;;;;5043393;28;20045;-79
2022/02/21 12:09:01;;;;;;;13.65;4.05;;;2.50;99.90;;;;;;5045504;28;20480;-80
2022/02/21 12:11:30;;;;;;;20.58;4.80;;;2.60;99.90;;;;;;5041296;28;20058;-79
2022/02/21 12:14:11;;;;;;;20.20;4.45;;;2.70;99.90;;;;;;5046885;28;20064;-81
2022/02/21 12:16:57;;;;;;;9.48;3.30;;;2.70;99.90;;;;;;5044086;28;20037;-79
2022/02/21 12:19:31;;;;;;;12.85;4.07;;;2.70;99.90;;;;;;5045364;28;20533;-79
2022/02/21 12:22:16;;;;;;;12.73;4.20;;;2.70;99.90;;;;;;5043826;28;20048;-79
2022/02/21 12:25:09;;;;;;;14.75;4.03;;;2.70;99.90;;;;;;5047027;28;20045;-79
2022/02/21 12:27:37;;;;;;;8.73;3.13;;;2.80;99.90;;;;;;5029159;28;20049;-81
2022/02/21 12:30:04;;;;;;;7.80;2.33;;;2.80;99.90;;;;;;5028066;28;20116;-80
2022/02/21 12:32:31;;;;;;;9.80;2.42;;;2.80;99.90;;;;;;5044168;28;20082;-79
2022/02/21 12:35:00;;;;;;;11.02;3.13;;;2.80;99.90;;;;;;5045048;28;20049;-81
2022/02/21 12:37:35;;;;;;;4.28;2.58;;;2.80;99.90;;;;;;5046222;28;20071;-79
2022/02/21 12:40:04;;;;;;;14.95;3.92;;;2.80;99.90;;;;;;5042600;28;20412;-79
2022/02/21 12:42:30;;;;;;;10.23;3.47;;;2.80;99.90;;;;;;5027466;28;20058;-79
2022/02/21 12:44:57;;;;;;;10.15;3.30;;;2.90;99.90;;;;;;5025495;28;20104;-79
2022/02/21 12:47:24;;;;;;;4.55;2.28;;;2.90;99.90;;;;;;5030505;28;20095;-80
2022/02/21 12:50:04;;;;;;;6.30;2.33;;;3.00;99.90;;;;;;5044806;28;20512;-78
2022/02/21 12:52:30;;;;;;;7.47;2.80;;;3.00;99.90;;;;;;5041578;28;20248;-79
2022/02/21 12:54:59;;;;;;;3.20;1.83;;;3.10;99.90;;;;;;5046251;28;20041;-79
2022/02/21 12:57:28;;;;;;;6.78;2.35;;;3.10;99.90;;;;;;5050678;28;20064;-79
2022/02/21 12:59:56;;;;;;;2.15;1.40;;;3.10;99.90;;;;;;5043613;28;20063;-79